createdAt,value
2023-03-23T16:01:18.349Z,16.17
2023-03-23T16:06:25.136Z,16.11
2023-03-23T16:11:31.227Z,15.99
2023-03-23T16:16:38.447Z,15.94
2023-03-23T16:21:41.987Z,15.89
2023-03-23T16:26:44.878Z,15.77
2023-03-23T16:31:49.537Z,15.74
2023-03-23T16:36:52.556Z,15.64
2023-03-23T16:41:55.509Z,15.42
2023-03-23T16:46:59.813Z,14.98
2023-03-23T16:52:02.740Z,14.99
2023-03-23T16:57:06.529Z,15.01
2023-03-23T17:02:12.480Z,15.02
2023-03-23T17:07:15.970Z,14.97
2023-03-23T17:12:19.197Z,14.89
2023-03-23T17:17:24.392Z,14.83
2023-03-23T17:22:27.568Z,14.83
2023-03-23T17:27:30.810Z,14.72
2023-03-23T17:32:36.642Z,14.63
2023-03-23T17:37:39.649Z,14.46
2023-03-23T17:42:42.700Z,14.38
2023-03-23T17:47:47.058Z,14.22
2023-03-23T17:52:50.448Z,14.12
2023-03-23T17:57:53.396Z,14.07
2023-03-23T18:02:57.672Z,13.74
2023-03-23T18:08:00.867Z,13.60
2023-03-23T18:13:03.919Z,13.42
2023-03-23T18:18:08.185Z,13.19
2023-03-23T18:23:11.314Z,13.26
2023-03-23T18:28:14.223Z,13.45
2023-03-23T18:33:20.376Z,13.29
2023-03-23T18:38:23.398Z,13.30
2023-03-23T18:43:26.378Z,13.24
2023-03-23T18:48:30.662Z,13.17
2023-03-23T18:53:33.777Z,13.25
2023-03-23T18:58:37.733Z,13.15
2023-03-23T19:03:42.328Z,13.12
2023-03-23T19:08:45.991Z,13.15
2023-03-23T19:14:00.376Z,13.11
2023-03-23T19:19:07.777Z,13.10
2023-03-23T19:24:11.218Z,13.10
2023-03-23T19:34:24.535Z,12.80
2023-03-23T19:39:27.974Z,12.64
2023-03-23T19:44:30.879Z,12.73
2023-03-23T19:49:35.194Z,12.57
2023-03-23T19:54:38.715Z,12.47
2023-03-23T19:59:42.254Z,12.39
2023-03-23T20:04:46.947Z,12.39
2023-03-23T20:09:50.032Z,12.44
2023-03-23T20:14:53.192Z,12.46
2023-03-23T20:19:57.899Z,12.39
2023-03-23T20:25:01.056Z,12.45
2023-03-23T20:30:06.189Z,12.57
2023-03-23T20:35:13.118Z,12.68
2023-03-23T20:40:16.000Z,12.62
2023-03-23T20:45:20.177Z,12.93
2023-03-23T20:50:24.480Z,13.28
2023-03-23T20:55:27.813Z,13.41
2023-03-23T21:00:30.797Z,13.40
2023-03-23T21:05:35.467Z,13.50
2023-03-23T21:10:39.421Z,13.52
2023-03-23T21:15:43.242Z,13.70
2023-03-23T21:20:47.917Z,13.68
2023-03-23T21:25:50.882Z,13.69
2023-03-23T21:30:54.697Z,13.74
2023-03-23T21:36:00.433Z,13.71
2023-03-23T21:41:08.996Z,13.71
2023-03-23T21:46:14.038Z,13.82
2023-03-23T21:51:21.171Z,13.74
2023-03-23T21:56:27.236Z,13.84
2023-03-23T22:01:30.526Z,13.69
2023-03-23T22:06:35.301Z,13.75
2023-03-23T22:11:39.968Z,13.71
2023-03-23T22:16:43.134Z,13.70
2023-03-23T22:21:47.638Z,13.77
2023-03-23T22:26:50.947Z,13.70
2023-03-23T22:31:54.066Z,13.68
2023-03-23T22:36:58.372Z,13.62
2023-03-23T22:42:01.463Z,13.50
2023-03-23T22:47:04.466Z,13.40
2023-03-23T22:52:08.824Z,13.36
2023-03-23T22:57:11.919Z,13.17
2023-03-23T23:02:14.984Z,13.10
2023-03-23T23:07:19.359Z,13.06
2023-03-23T23:12:22.405Z,13.04
2023-03-23T23:17:26.572Z,12.94
2023-03-23T23:22:31.308Z,13.00
2023-03-23T23:27:34.929Z,12.92
2023-03-23T23:32:38.133Z,12.81
2023-03-23T23:37:42.490Z,12.68
2023-03-23T23:42:46.996Z,12.64
2023-03-23T23:47:50.438Z,12.61
2023-03-23T23:52:55.067Z,12.66
2023-03-23T23:57:57.976Z,12.61
